Terminal Aerodrome Forecast
Issued by NWS Wichita, KS

Home | Current Version | Previous Version | Graphics & Text | Print | Product List | Glossary On
Versions: 1 2 3 4 5 6 7 8 9 10 11 12 13
470
FTUS43 KICT 171733
TAFICT
TAF
KICT 171733Z 1718/1818 34015KT P6SM SKC
     FM172000 35017G25KT P6SM SKC
     FM180000 02007KT P6SM SKC
     FM180500 14005KT P6SM SKC
     FM181000 17013KT P6SM SKC WS020/19040KT
     FM181400 17016G22KT P6SM FEW250
     FM181700 18025G35KT P6SM SCT250=

USA.gov is the U.S. government's official web portal to all federal, state and local government web resources and services.